Terminal Aerodrome Forecast
Issued by NWS

Home | Current Version | Previous Version | Text Only | Print | Product List | Glossary On
Versions: 1 2 3 4 5 6 7 8 9 10 11 12 13
000
FTUS41 KBTV 301700
TAFMSS
TAF
KMSS 301727Z 3018/3118 22010G18KT P6SM BKN150
     FM310300 22009KT P6SM BKN100
     FM310500 22008KT P6SM VCSH OVC050
     FM310900 22009KT 5SM -SHRA OVC030=

USA.gov is the U.S. government's official web portal to all federal, state and local government web resources and services.